Time;durP1;ratioP1;P1;durP2;ratioP2;P2;SDS_P1;SDS_P2;PMS_P1;PMS_P2;Temp;Humidity;BMP_temperature;BMP_pressure;BME280_temperature;BME280_humidity;BME280_pressure;Samples;Min_cycle;Max_cycle;Signal;HPM_P1;HPM_P2
2021/12/28 00:01:01;;;;;;;12.20;8.80;;;13.80;99.90;;;;;;5032373;28;20029;-65
2021/12/28 00:03:27;;;;;;;14.80;9.27;;;13.80;99.90;;;;;;5032451;28;20030;-65
2021/12/28 00:05:53;;;;;;;15.45;9.05;;;13.80;99.90;;;;;;5032465;28;20064;-66
2021/12/28 00:08:19;;;;;;;11.93;8.50;;;13.90;99.90;;;;;;5032126;28;20133;-64
2021/12/28 00:10:49;;;;;;;12.88;7.78;;;13.90;99.90;;;;;;5032466;28;20056;-65
2021/12/28 00:13:16;;;;;;;12.98;8.10;;;13.80;99.90;;;;;;5032479;28;20024;-68
2021/12/28 00:15:49;;;;;;;11.88;7.97;;;13.80;99.90;;;;;;5032440;28;20031;-65
2021/12/28 00:18:15;;;;;;;14.45;8.20;;;13.90;99.90;;;;;;5032058;28;20554;-65
2021/12/28 00:20:46;;;;;;;11.77;7.57;;;13.90;99.90;;;;;;5032358;28;20017;-66
2021/12/28 00:23:17;;;;;;;11.77;7.00;;;13.90;99.90;;;;;;5032354;28;20030;-65
2021/12/28 00:25:44;;;;;;;13.73;7.03;;;13.90;99.90;;;;;;5032191;28;20025;-68
2021/12/28 00:28:10;;;;;;;11.50;7.43;;;13.90;99.90;;;;;;5032332;28;20025;-65
2021/12/28 00:30:37;;;;;;;10.23;6.95;;;13.90;99.90;;;;;;5033019;28;20052;-63
2021/12/28 00:33:04;;;;;;;13.23;8.05;;;13.90;99.90;;;;;;5035892;28;20026;-69
2021/12/28 00:35:41;;;;;;;11.63;7.75;;;13.90;99.90;;;;;;5035773;28;20482;-65
2021/12/28 00:38:09;;;;;;;10.70;7.78;;;13.90;99.90;;;;;;5035536;28;20068;-65
2021/12/28 00:40:36;;;;;;;13.52;8.10;;;13.80;99.90;;;;;;5035517;28;20053;-65
2021/12/28 00:43:03;;;;;;;13.77;8.48;;;13.80;99.90;;;;;;5035654;28;20071;-68
2021/12/28 00:45:28;;;;;;;13.02;8.52;;;13.90;99.90;;;;;;5035680;28;20032;-67
2021/12/28 00:47:54;;;;;;;14.68;9.98;;;13.90;99.90;;;;;;5035549;28;20093;-67
2021/12/28 00:50:20;;;;;;;17.15;9.82;;;13.90;99.90;;;;;;5035612;28;20046;-65
2021/12/28 00:52:47;;;;;;;15.68;10.27;;;13.90;99.90;;;;;;5035498;28;20026;-66
2021/12/28 00:55:15;;;;;;;16.13;10.52;;;13.80;99.90;;;;;;5035277;28;20029;-65
2021/12/28 00:57:41;;;;;;;16.80;10.80;;;13.80;99.90;;;;;;5017301;28;20040;-66
2021/12/28 01:00:10;;;;;;;18.55;11.40;;;13.80;99.90;;;;;;5035429;28;20514;-65
2021/12/28 01:02:36;;;;;;;18.83;12.45;;;13.80;99.90;;;;;;5036221;28;20044;-66
2021/12/28 01:05:03;;;;;;;18.35;12.20;;;13.80;99.90;;;;;;5037863;28;20013;-66
2021/12/28 01:07:29;;;;;;;18.23;12.65;;;13.70;99.90;;;;;;5037074;28;20499;-66
2021/12/28 01:09:55;;;;;;;16.50;10.25;;;13.70;99.90;;;;;;5038283;28;20052;-66
2021/12/28 01:12:20;;;;;;;15.60;10.95;;;13.70;99.90;;;;;;5019588;28;20034;-71
2021/12/28 01:14:46;;;;;;;16.15;10.88;;;13.70;99.90;;;;;;5035008;28;20040;-66
2021/12/28 01:17:12;;;;;;;13.88;9.70;;;13.60;99.90;;;;;;5035075;28;20395;-74
2021/12/28 01:19:38;;;;;;;15.07;9.13;;;13.60;99.90;;;;;;5034848;28;20014;-65
2021/12/28 01:22:04;;;;;;;12.85;9.13;;;13.60;99.90;;;;;;5034783;28;20069;-68
2021/12/28 01:24:30;;;;;;;13.48;8.68;;;13.60;99.90;;;;;;5035004;28;20534;-71
2021/12/28 01:26:57;;;;;;;12.57;8.50;;;13.60;99.90;;;;;;5035082;28;20025;-71
2021/12/28 01:29:23;;;;;;;13.38;8.45;;;13.60;99.90;;;;;;5034584;28;20056;-65
2021/12/28 01:31:49;;;;;;;12.98;8.65;;;13.60;99.90;;;;;;5034735;28;20021;-66
2021/12/28 01:34:15;;;;;;;13.18;8.75;;;13.60;99.90;;;;;;5016964;28;20029;-66
2021/12/28 01:36:41;;;;;;;12.43;8.77;;;13.50;99.90;;;;;;5034528;28;20406;-65
2021/12/28 01:39:08;;;;;;;13.63;8.65;;;13.50;99.90;;;;;;5034864;28;20375;-64
2021/12/28 01:41:34;;;;;;;12.25;8.73;;;13.50;99.90;;;;;;5034453;28;20025;-69
2021/12/28 01:44:06;;;;;;;11.82;8.25;;;13.40;99.90;;;;;;5033732;28;20030;-67
2021/12/28 01:46:33;;;;;;;12.95;8.90;;;13.40;99.90;;;;;;5034570;28;20032;-64
2021/12/28 01:48:59;;;;;;;12.30;9.05;;;13.40;99.90;;;;;;5016940;28;20497;-67
2021/12/28 01:51:27;;;;;;;14.77;9.05;;;13.40;99.90;;;;;;5034283;28;20081;-75
2021/12/28 01:53:56;;;;;;;10.40;8.02;;;13.40;99.90;;;;;;5034458;28;20475;-69
2021/12/28 01:56:28;;;;;;;12.68;9.07;;;13.40;99.90;;;;;;5016570;28;20048;-72
2021/12/28 01:58:57;;;;;;;13.63;8.63;;;13.30;99.90;;;;;;5016969;28;20390;-72
2021/12/28 02:01:24;;;;;;;13.60;8.25;;;13.40;99.90;;;;;;5034059;28;20497;-65
2021/12/28 02:03:50;;;;;;;14.88;9.13;;;13.40;99.90;;;;;;5034053;28;20056;-75
2021/12/28 02:06:16;;;;;;;11.80;8.63;;;13.50;99.90;;;;;;5034101;28;20025;-65
2021/12/28 02:08:42;;;;;;;12.27;8.43;;;13.50;99.90;;;;;;5033932;28;20029;-65
2021/12/28 02:11:10;;;;;;;13.63;8.30;;;13.50;99.90;;;;;;5033719;28;20027;-68
2021/12/28 02:13:37;;;;;;;13.52;8.30;;;13.60;99.90;;;;;;5034047;28;20391;-64
2021/12/28 02:16:03;;;;;;;11.48;7.40;;;13.60;99.90;;;;;;5033755;28;20030;-65
2021/12/28 02:18:31;;;;;;;12.68;7.05;;;13.60;99.90;;;;;;5033788;28;20434;-64
2021/12/28 02:20:58;;;;;;;9.98;6.38;;;13.60;99.90;;;;;;5033944;28;20371;-64
2021/12/28 02:23:25;;;;;;;8.63;5.90;;;13.60;99.90;;;;;;5033822;28;20123;-67
2021/12/28 02:25:51;;;;;;;10.00;6.07;;;13.60;99.90;;;;;;5033504;28;20029;-64
2021/12/28 02:28:17;;;;;;;10.40;5.75;;;13.60;99.90;;;;;;5015812;28;20029;-65
2021/12/28 02:30:47;;;;;;;8.65;4.85;;;13.60;99.90;;;;;;5033885;28;20025;-65
2021/12/28 02:33:13;;;;;;;8.52;5.03;;;13.60;99.90;;;;;;5033665;28;20096;-64
2021/12/28 02:35:39;;;;;;;7.65;4.80;;;13.60;99.90;;;;;;5033414;28;20054;-65
2021/12/28 02:38:07;;;;;;;8.18;4.82;;;13.60;99.90;;;;;;5033310;28;20064;-65
2021/12/28 02:40:34;;;;;;;10.45;6.15;;;13.60;99.90;;;;;;5033358;28;20022;-65
2021/12/28 02:43:02;;;;;;;8.82;6.00;;;13.70;99.90;;;;;;5033442;28;20525;-64
2021/12/28 02:45:31;;;;;;;8.07;5.40;;;13.70;99.90;;;;;;5033314;28;20108;-64
2021/12/28 02:47:57;;;;;;;9.65;6.00;;;13.70;99.90;;;;;;5033413;28;20030;-64
2021/12/28 02:50:30;;;;;;;9.95;6.30;;;13.60;99.90;;;;;;5033192;28;20072;-64
2021/12/28 02:52:56;;;;;;;7.97;5.55;;;13.60;99.90;;;;;;5033414;28;20364;-65
2021/12/28 02:55:24;;;;;;;13.73;9.05;;;13.60;99.90;;;;;;5033324;28;20028;-68
2021/12/28 02:57:59;;;;;;;12.10;8.93;;;13.60;99.90;;;;;;5033132;28;20045;-65
2021/12/28 03:00:41;;;;;;;13.35;9.02;;;13.50;99.90;;;;;;5033408;28;20493;-65
2021/12/28 03:03:18;;;;;;;14.55;9.25;;;13.40;99.90;;;;;;5033242;28;20026;-66
2021/12/28 03:05:46;;;;;;;12.27;8.95;;;13.40;99.90;;;;;;5032954;28;20029;-68
2021/12/28 03:08:14;;;;;;;12.15;9.27;;;13.40;99.90;;;;;;5032952;28;20352;-65
2021/12/28 03:10:41;;;;;;;13.85;9.13;;;13.40;99.90;;;;;;5033176;28;20021;-65
2021/12/28 03:13:08;;;;;;;13.65;8.73;;;13.40;99.90;;;;;;5033021;28;20464;-68
2021/12/28 03:15:35;;;;;;;15.30;9.63;;;13.40;99.90;;;;;;5032919;28;20026;-65
2021/12/28 03:18:00;;;;;;;13.23;8.82;;;13.40;99.90;;;;;;5032876;28;20080;-64
2021/12/28 03:20:26;;;;;;;14.68;9.15;;;13.40;99.90;;;;;;5032882;28;20049;-65
2021/12/28 03:22:52;;;;;;;13.27;9.10;;;13.40;99.90;;;;;;5015421;28;20097;-75
2021/12/28 03:25:18;;;;;;;11.85;8.73;;;13.40;99.90;;;;;;5032979;28;20419;-76
2021/12/28 03:27:44;;;;;;;12.90;8.93;;;13.40;99.90;;;;;;5032940;28;20041;-77
2021/12/28 03:30:14;;;;;;;13.02;8.93;;;13.40;99.90;;;;;;5015160;28;20378;-65
2021/12/28 03:32:40;;;;;;;14.07;9.23;;;13.40;99.90;;;;;;5032596;28;20053;-65
2021/12/28 03:35:08;;;;;;;13.50;9.20;;;13.40;99.90;;;;;;5032767;28;20479;-65
2021/12/28 03:37:35;;;;;;;12.27;9.27;;;13.40;99.90;;;;;;5032780;28;20034;-78
2021/12/28 03:40:04;;;;;;;12.13;8.65;;;13.40;99.90;;;;;;5032545;28;20036;-70
2021/12/28 03:42:30;;;;;;;9.73;7.15;;;13.30;99.90;;;;;;5032879;28;20029;-69
2021/12/28 03:44:56;;;;;;;11.63;8.05;;;13.30;99.90;;;;;;5033255;28;20021;-72
2021/12/28 03:47:21;;;;;;;12.48;7.43;;;13.30;99.90;;;;;;5033201;28;20029;-66
2021/12/28 03:49:47;;;;;;;10.70;7.35;;;13.30;99.90;;;;;;5032514;28;20021;-64
2021/12/28 03:52:13;;;;;;;11.00;6.88;;;13.30;99.90;;;;;;5032389;28;20049;-65
2021/12/28 03:54:39;;;;;;;10.13;5.70;;;13.40;99.90;;;;;;5032508;28;20098;-64
2021/12/28 03:57:05;;;;;;;7.60;5.05;;;13.40;99.90;;;;;;5032416;28;20038;-64
2021/12/28 03:59:30;;;;;;;8.73;5.25;;;13.30;99.90;;;;;;5032480;28;20371;-65
2021/12/28 04:01:57;;;;;;;8.27;5.20;;;13.30;99.90;;;;;;5014469;28;20028;-64
2021/12/28 04:04:24;;;;;;;8.48;4.88;;;13.30;99.90;;;;;;5032415;28;20025;-64
2021/12/28 04:06:49;;;;;;;7.88;5.20;;;13.30;99.90;;;;;;5035135;28;20104;-65
2021/12/28 04:09:23;;;;;;;8.27;4.90;;;13.30;99.90;;;;;;5036125;28;20483;-66
2021/12/28 04:11:49;;;;;;;7.65;4.88;;;13.30;99.90;;;;;;5036316;28;20058;-64
2021/12/28 04:14:15;;;;;;;7.00;5.00;;;13.20;99.90;;;;;;5036052;28;20026;-65
2021/12/28 04:16:41;;;;;;;6.88;4.78;;;13.20;99.90;;;;;;5018812;28;20037;-64
2021/12/28 04:19:07;;;;;;;11.88;6.55;;;13.20;99.90;;;;;;5035830;28;20033;-68
2021/12/28 04:21:35;;;;;;;7.30;5.03;;;13.20;99.90;;;;;;5036098;28;20026;-66
2021/12/28 04:24:01;;;;;;;7.40;4.95;;;13.20;99.90;;;;;;5036233;28;20022;-64
2021/12/28 04:26:28;;;;;;;7.57;4.90;;;13.30;99.90;;;;;;5036062;28;20029;-65
2021/12/28 04:28:55;;;;;;;8.00;5.10;;;13.30;99.90;;;;;;5017979;28;20025;-64
2021/12/28 04:31:21;;;;;;;8.45;5.65;;;13.20;99.90;;;;;;5035784;28;20021;-64
2021/12/28 04:33:47;;;;;;;7.88;4.95;;;13.20;99.90;;;;;;5035972;28;20494;-65
2021/12/28 04:36:15;;;;;;;9.35;5.70;;;13.30;99.90;;;;;;5035827;28;20025;-65
2021/12/28 04:38:43;;;;;;;9.70;5.57;;;13.30;99.90;;;;;;5035707;28;20375;-65
2021/12/28 04:41:10;;;;;;;9.23;5.38;;;13.30;99.90;;;;;;5035742;28;20021;-64
2021/12/28 04:43:37;;;;;;;8.15;5.15;;;13.30;99.90;;;;;;5035614;28;20033;-64
2021/12/28 04:46:04;;;;;;;7.18;4.65;;;13.30;99.90;;;;;;5035810;28;20426;-65
2021/12/28 04:48:29;;;;;;;9.40;5.30;;;13.30;99.90;;;;;;5035600;28;20026;-64
2021/12/28 04:50:55;;;;;;;6.38;4.65;;;13.30;99.90;;;;;;5035410;28;20406;-64
2021/12/28 04:53:22;;;;;;;7.93;5.22;;;13.30;99.90;;;;;;5035469;28;20562;-65
2021/12/28 04:55:49;;;;;;;8.95;5.35;;;13.30;99.90;;;;;;5035178;28;20438;-65
2021/12/28 04:58:15;;;;;;;11.40;5.50;;;13.30;99.90;;;;;;5017439;28;20465;-65
2021/12/28 05:00:44;;;;;;;8.13;4.57;;;13.30;99.90;;;;;;5035222;28;20033;-65
2021/12/28 05:03:10;;;;;;;7.78;4.78;;;13.30;99.90;;;;;;5018136;28;20030;-66
2021/12/28 05:05:38;;;;;;;9.07;4.70;;;13.30;99.90;;;;;;5035328;28;20103;-65
2021/12/28 05:08:05;;;;;;;12.70;7.70;;;13.20;99.90;;;;;;5035146;28;20014;-67
2021/12/28 05:10:32;;;;;;;7.10;4.97;;;13.30;99.90;;;;;;5035022;28;20022;-66
2021/12/28 05:12:57;;;;;;;8.52;5.32;;;13.20;99.90;;;;;;5035299;28;20493;-65
2021/12/28 05:15:23;;;;;;;10.13;4.95;;;13.20;99.90;;;;;;5017437;28;20065;-66
2021/12/28 05:17:49;;;;;;;9.00;5.03;;;13.30;99.90;;;;;;5033484;28;20113;-64
2021/12/28 05:20:15;;;;;;;8.43;4.70;;;13.30;99.90;;;;;;5034994;28;20029;-66
2021/12/28 05:22:41;;;;;;;7.55;4.47;;;13.30;99.90;;;;;;5034942;28;20049;-65
2021/12/28 05:25:09;;;;;;;6.78;4.47;;;13.30;99.90;;;;;;5034939;28;20032;-64
2021/12/28 05:27:35;;;;;;;6.13;4.40;;;13.30;99.90;;;;;;5035193;28;20021;-65
2021/12/28 05:30:02;;;;;;;7.88;5.30;;;13.30;99.90;;;;;;5035011;28;20041;-66
2021/12/28 05:32:28;;;;;;;7.65;5.00;;;13.30;99.90;;;;;;5034688;28;20029;-65
2021/12/28 05:34:54;;;;;;;8.10;4.70;;;13.30;99.90;;;;;;5034959;28;20029;-69
2021/12/28 05:37:19;;;;;;;6.55;4.70;;;13.30;99.90;;;;;;5034806;28;20037;-71
2021/12/28 05:39:48;;;;;;;12.00;5.50;;;13.30;99.90;;;;;;5016994;28;20053;-68
2021/12/28 05:42:13;;;;;;;8.68;5.00;;;13.30;99.90;;;;;;5034867;28;20030;-68
2021/12/28 05:44:39;;;;;;;8.20;5.10;;;13.30;99.90;;;;;;5034815;28;20014;-65
2021/12/28 05:47:05;;;;;;;8.40;5.47;;;13.30;99.90;;;;;;5034894;28;20021;-74
2021/12/28 05:49:33;;;;;;;8.07;5.47;;;13.30;99.90;;;;;;5017824;28;20471;-66
2021/12/28 05:51:59;;;;;;;9.38;5.32;;;13.30;99.90;;;;;;5034826;28;20228;-80
2021/12/28 05:54:25;;;;;;;8.27;4.90;;;13.30;99.90;;;;;;5035149;28;20065;-71
2021/12/28 05:56:51;;;;;;;8.35;5.00;;;13.30;99.90;;;;;;5035314;28;20026;-73
2021/12/28 05:59:16;;;;;;;10.20;5.45;;;13.30;99.90;;;;;;5041142;28;20173;-71
2021/12/28 06:01:43;;;;;;;8.32;5.55;;;13.30;99.90;;;;;;5039376;28;20117;-68
2021/12/28 06:04:09;;;;;;;9.80;5.78;;;13.30;99.90;;;;;;5038360;28;20330;-65
2021/12/28 06:06:34;;;;;;;8.23;5.35;;;13.30;99.90;;;;;;5034197;28;20022;-66
2021/12/28 06:09:00;;;;;;;12.23;5.68;;;13.30;99.90;;;;;;5034049;28;20333;-66
2021/12/28 06:11:26;;;;;;;10.63;5.78;;;13.30;99.90;;;;;;5034240;28;20072;-67
2021/12/28 06:13:52;;;;;;;10.07;5.93;;;13.30;99.90;;;;;;5034214;28;20029;-73
2021/12/28 06:16:18;;;;;;;8.90;5.88;;;13.30;99.90;;;;;;5033870;28;20038;-68
2021/12/28 06:18:44;;;;;;;9.70;5.70;;;13.30;99.90;;;;;;5033868;28;20037;-66
2021/12/28 06:21:09;;;;;;;10.93;6.30;;;13.40;99.90;;;;;;5033769;28;20031;-66
2021/12/28 06:23:35;;;;;;;7.50;5.45;;;13.40;99.90;;;;;;5033692;28;20459;-66
2021/12/28 06:26:01;;;;;;;8.80;5.30;;;13.40;99.90;;;;;;5033843;28;20017;-65
2021/12/28 06:28:27;;;;;;;8.55;5.60;;;13.40;99.90;;;;;;5032789;28;20065;-65
2021/12/28 06:30:54;;;;;;;11.48;8.18;;;13.40;99.90;;;;;;5033817;28;20022;-66
2021/12/28 06:33:21;;;;;;;10.35;6.55;;;13.30;99.90;;;;;;5033793;28;20025;-65
2021/12/28 06:35:47;;;;;;;10.68;5.55;;;13.30;99.90;;;;;;5015594;28;20485;-67
2021/12/28 06:38:13;;;;;;;10.65;6.50;;;13.40;99.90;;;;;;5033403;28;20472;-64
2021/12/28 06:40:39;;;;;;;8.18;4.95;;;13.40;99.90;;;;;;5033453;28;20166;-66
2021/12/28 06:43:05;;;;;;;7.25;5.13;;;13.40;99.90;;;;;;5033790;28;20081;-73
2021/12/28 06:45:33;;;;;;;8.73;5.60;;;13.40;99.90;;;;;;5035938;28;20048;-79
2021/12/28 06:47:59;;;;;;;8.82;5.50;;;13.30;99.90;;;;;;5015599;28;20026;-78
2021/12/28 06:50:25;;;;;;;9.68;5.88;;;13.30;99.90;;;;;;5015577;28;20046;-71
2021/12/28 06:52:51;;;;;;;11.65;6.50;;;13.30;99.90;;;;;;5033608;28;20040;-76
2021/12/28 06:55:18;;;;;;;9.77;6.55;;;13.30;99.90;;;;;;5033533;28;20048;-75
2021/12/28 06:57:44;;;;;;;11.68;6.43;;;13.30;99.90;;;;;;5033931;28;20471;-76
2021/12/28 07:00:14;;;;;;;12.88;6.95;;;13.30;99.90;;;;;;5033799;28;20014;-69
2021/12/28 07:02:40;;;;;;;11.43;7.00;;;13.30;99.90;;;;;;5033484;28;20029;-75
2021/12/28 07:05:15;;;;;;;10.70;7.20;;;13.30;99.90;;;;;;5033507;28;20502;-75
2021/12/28 07:07:41;;;;;;;12.48;7.55;;;13.30;99.90;;;;;;5033411;28;20121;-73
2021/12/28 07:10:08;;;;;;;12.88;7.43;;;13.30;99.90;;;;;;5018911;28;20105;-72
2021/12/28 07:12:39;;;;;;;12.20;7.80;;;13.30;99.90;;;;;;5033356;28;20033;-72
2021/12/28 07:15:06;;;;;;;13.35;9.65;;;13.30;99.90;;;;;;5024851;28;20040;-66
2021/12/28 07:17:32;;;;;;;15.30;10.65;;;13.20;99.90;;;;;;5036727;28;20470;-70
2021/12/28 07:19:58;;;;;;;13.50;11.13;;;13.30;99.90;;;;;;5047234;28;20040;-72
2021/12/28 07:22:26;;;;;;;18.52;11.38;;;13.30;99.90;;;;;;5045937;28;20037;-65
2021/12/28 07:24:52;;;;;;;12.35;9.73;;;13.30;99.90;;;;;;5047530;28;20013;-72
2021/12/28 07:27:17;;;;;;;13.00;10.15;;;13.30;99.90;;;;;;5047002;28;20026;-69
2021/12/28 07:29:45;;;;;;;14.30;9.38;;;13.30;99.90;;;;;;5046075;28;20021;-70
2021/12/28 07:32:10;;;;;;;12.35;8.75;;;13.40;99.90;;;;;;5038441;28;20025;-76
2021/12/28 07:34:36;;;;;;;13.80;8.68;;;13.50;99.90;;;;;;5033608;28;20079;-73
2021/12/28 07:37:03;;;;;;;10.68;7.63;;;13.50;99.90;;;;;;5033407;28;20343;-76
2021/12/28 07:39:30;;;;;;;10.90;7.97;;;13.50;99.90;;;;;;5033020;28;20022;-79
2021/12/28 07:41:56;;;;;;;11.65;8.20;;;13.60;99.90;;;;;;5018921;28;20114;-77
2021/12/28 07:44:21;;;;;;;12.60;8.27;;;13.60;99.90;;;;;;5003110;28;20065;-74
2021/12/28 07:46:47;;;;;;;11.98;8.15;;;13.60;99.90;;;;;;5036871;28;20263;-77
2021/12/28 07:49:13;;;;;;;12.77;8.50;;;13.60;99.90;;;;;;5019670;28;20022;-77
2021/12/28 07:51:39;;;;;;;10.98;7.55;;;13.60;99.90;;;;;;5037113;28;20050;-74
2021/12/28 07:54:04;;;;;;;12.70;7.85;;;13.60;99.90;;;;;;5036775;28;20028;-70
2021/12/28 07:56:37;;;;;;;11.73;8.43;;;13.60;99.90;;;;;;5036583;28;20052;-68
2021/12/28 07:59:05;;;;;;;10.50;8.02;;;13.60;99.90;;;;;;5036664;28;20059;-67
2021/12/28 08:01:34;;;;;;;11.48;7.10;;;13.70;99.90;;;;;;5038051;28;20108;-68
2021/12/28 08:04:00;;;;;;;13.13;8.48;;;13.70;99.90;;;;;;5037659;28;20030;-69
2021/12/28 08:06:26;;;;;;;12.32;7.65;;;13.70;99.90;;;;;;5036376;28;20030;-74
2021/12/28 08:08:52;;;;;;;11.90;7.80;;;13.70;99.90;;;;;;5018599;28;20033;-71
2021/12/28 08:11:22;;;;;;;14.77;8.35;;;13.70;99.90;;;;;;5036563;28;20028;-69
2021/12/28 08:13:48;;;;;;;14.63;8.90;;;13.70;99.90;;;;;;5036049;28;20077;-73
2021/12/28 08:16:14;;;;;;;12.43;8.55;;;13.60;99.90;;;;;;5035960;28;20033;-68
2021/12/28 08:18:40;;;;;;;16.27;8.85;;;13.70;99.90;;;;;;5018694;28;20176;-70
2021/12/28 08:21:07;;;;;;;15.13;9.13;;;13.70;99.90;;;;;;5036170;28;20021;-68
2021/12/28 08:23:33;;;;;;;12.07;8.20;;;13.70;99.90;;;;;;5036175;28;20029;-71
2021/12/28 08:25:58;;;;;;;16.75;8.88;;;13.80;99.90;;;;;;5036198;28;20359;-71
2021/12/28 08:28:25;;;;;;;12.55;8.95;;;13.80;99.90;;;;;;5035575;28;20028;-65
2021/12/28 08:30:54;;;;;;;14.70;9.20;;;13.80;99.90;;;;;;5035804;28;20025;-67
2021/12/28 08:33:20;;;;;;;15.02;9.02;;;13.90;99.90;;;;;;5036155;28;20029;-71
2021/12/28 08:35:45;;;;;;;16.00;9.63;;;14.00;99.90;;;;;;5035825;28;20443;-66
2021/12/28 08:38:12;;;;;;;14.25;7.90;;;14.10;99.90;;;;;;5036166;28;20038;-75
2021/12/28 08:40:40;;;;;;;16.30;8.13;;;14.20;99.90;;;;;;5018677;28;20065;-76
2021/12/28 08:43:07;;;;;;;16.55;8.80;;;14.30;99.90;;;;;;5036131;28;20025;-69
2021/12/28 08:45:33;;;;;;;12.43;8.18;;;14.30;99.90;;;;;;5036115;28;20068;-77
2021/12/28 08:47:59;;;;;;;13.52;8.15;;;14.40;99.90;;;;;;5017954;28;20068;-76
2021/12/28 08:50:25;;;;;;;10.80;7.90;;;14.40;99.90;;;;;;5035780;28;20041;-68
2021/12/28 08:52:52;;;;;;;14.70;8.90;;;14.50;99.90;;;;;;5034080;28;20029;-70
2021/12/28 08:55:24;;;;;;;15.15;7.97;;;14.50;99.90;;;;;;5018016;28;20201;-72
2021/12/28 08:57:51;;;;;;;13.77;8.63;;;14.40;99.90;;;;;;5035595;28;20087;-72
2021/12/28 09:00:27;;;;;;;15.90;9.00;;;14.40;99.90;;;;;;5035985;28;20037;-75
2021/12/28 09:02:56;;;;;;;19.02;10.45;;;14.50;99.90;;;;;;5035707;28;20061;-71
2021/12/28 09:05:23;;;;;;;14.05;8.88;;;14.50;99.90;;;;;;5035581;28;20451;-77
2021/12/28 09:07:50;;;;;;;18.45;8.82;;;14.50;99.90;;;;;;5017593;28;20041;-73
2021/12/28 09:10:16;;;;;;;14.90;8.68;;;14.40;99.90;;;;;;5035035;28;20387;-69
2021/12/28 09:12:44;;;;;;;11.80;7.82;;;14.50;99.90;;;;;;5036858;28;20026;-70
2021/12/28 09:15:10;;;;;;;14.02;8.48;;;14.50;99.90;;;;;;5038295;28;20022;-65
2021/12/28 09:17:38;;;;;;;15.05;8.30;;;14.50;99.90;;;;;;5036411;28;20163;-73
2021/12/28 09:20:08;;;;;;;14.05;7.85;;;14.50;99.90;;;;;;5035602;28;20017;-76
2021/12/28 09:22:35;;;;;;;14.65;8.57;;;14.50;99.90;;;;;;5017244;28;20044;-69
2021/12/28 09:25:01;;;;;;;11.15;8.05;;;14.50;99.90;;;;;;5035363;28;20068;-67
2021/12/28 09:27:26;;;;;;;17.63;8.20;;;14.60;99.90;;;;;;5035085;28;20032;-72
2021/12/28 09:29:57;;;;;;;14.25;8.80;;;14.60;99.90;;;;;;5035765;28;20059;-69
2021/12/28 09:32:26;;;;;;;13.00;7.60;;;14.60;99.90;;;;;;5015824;28;20045;-72
2021/12/28 09:34:55;;;;;;;13.40;8.10;;;14.70;99.90;;;;;;5034971;28;20033;-67
2021/12/28 09:37:22;;;;;;;16.98;8.00;;;14.70;99.90;;;;;;5034981;28;20395;-74
2021/12/28 09:39:49;;;;;;;13.15;7.60;;;14.80;99.90;;;;;;5017217;28;20037;-69
2021/12/28 09:42:17;;;;;;;9.93;6.85;;;14.80;99.90;;;;;;5034595;28;20148;-71
2021/12/28 09:44:47;;;;;;;10.27;6.63;;;14.80;99.90;;;;;;5016976;28;20028;-70
2021/12/28 09:47:15;;;;;;;12.10;7.57;;;14.90;99.90;;;;;;5018083;28;20136;-76
2021/12/28 09:49:42;;;;;;;12.13;7.85;;;14.90;99.90;;;;;;5017451;28;20048;-69
2021/12/28 09:52:09;;;;;;;11.90;7.80;;;14.90;99.90;;;;;;5034991;28;20077;-68
2021/12/28 09:54:36;;;;;;;10.93;7.45;;;14.90;99.90;;;;;;5035700;28;20021;-70
2021/12/28 09:57:03;;;;;;;13.68;8.30;;;14.90;99.90;;;;;;5035033;28;20033;-73
2021/12/28 09:59:30;;;;;;;11.82;8.30;;;15.00;99.90;;;;;;5034416;28;20032;-71
2021/12/28 10:01:59;;;;;;;16.42;7.88;;;15.10;99.90;;;;;;5016943;28;20036;-75
2021/12/28 10:04:30;;;;;;;13.98;8.73;;;15.10;99.90;;;;;;5034095;28;20076;-78
2021/12/28 10:07:16;;;;;;;12.07;8.07;;;15.20;99.90;;;;;;5034057;28;20013;-72
2021/12/28 10:09:43;;;;;;;11.80;8.45;;;15.30;99.90;;;;;;5034518;28;20021;-74
2021/12/28 10:12:10;;;;;;;17.23;8.32;;;15.40;99.90;;;;;;5016507;28;20120;-71
2021/12/28 10:14:36;;;;;;;12.38;8.57;;;15.40;99.90;;;;;;5034024;28;20037;-76
2021/12/28 10:17:06;;;;;;;12.07;9.63;;;15.60;99.90;;;;;;5034084;28;20083;-72
2021/12/28 10:19:41;;;;;;;14.05;8.60;;;15.70;99.80;;;;;;5016799;28;20383;-73
2021/12/28 10:22:37;;;;;;;16.38;8.77;;;15.80;99.40;;;;;;5034399;28;20402;-74
2021/12/28 10:25:11;;;;;;;14.70;10.23;;;16.00;99.50;;;;;;5034623;28;20028;-68
2021/12/28 10:27:46;;;;;;;16.70;11.20;;;16.10;99.20;;;;;;5033680;28;20025;-69
2021/12/28 10:30:26;;;;;;;13.27;9.70;;;16.10;99.10;;;;;;5016411;28;20119;-66
2021/12/28 10:33:05;;;;;;;15.23;10.23;;;16.10;99.00;;;;;;5033614;28;20028;-75
2021/12/28 10:35:46;;;;;;;17.50;9.40;;;16.20;99.10;;;;;;5015858;28;20116;-73
2021/12/28 10:38:23;;;;;;;16.83;9.23;;;16.20;99.00;;;;;;5017246;28;20107;-77
2021/12/28 10:41:02;;;;;;;15.00;8.98;;;16.20;98.70;;;;;;5033418;28;20024;-66
2021/12/28 10:43:32;;;;;;;12.90;8.15;;;16.20;98.80;;;;;;5033596;28;20033;-72
2021/12/28 10:46:03;;;;;;;11.15;8.00;;;16.20;98.70;;;;;;5033391;28;20055;-70
2021/12/28 10:48:38;;;;;;;15.00;8.60;;;16.20;98.80;;;;;;5033766;28;20034;-69
2021/12/28 10:51:04;;;;;;;12.43;8.32;;;16.20;98.70;;;;;;5033109;28;20053;-68
2021/12/28 10:53:54;;;;;;;14.05;9.13;;;16.20;98.50;;;;;;5033189;28;20076;-70
2021/12/28 10:56:20;;;;;;;10.15;7.78;;;16.30;98.70;;;;;;5002286;28;20545;-69
2021/12/28 10:58:48;;;;;;;12.63;8.55;;;16.20;98.60;;;;;;5033267;28;20030;-67
2021/12/28 11:01:18;;;;;;;12.52;8.93;;;16.30;98.50;;;;;;5033072;28;20042;-66
2021/12/28 11:03:47;;;;;;;17.13;9.27;;;16.30;98.70;;;;;;5033105;28;20486;-68
2021/12/28 11:06:21;;;;;;;14.48;9.35;;;16.30;98.40;;;;;;5032955;28;20021;-67
2021/12/28 11:08:51;;;;;;;14.52;9.95;;;16.30;98.50;;;;;;5032484;28;20024;-68
2021/12/28 11:11:20;;;;;;;12.93;8.90;;;16.30;98.50;;;;;;5033137;28;20112;-67
2021/12/28 11:13:47;;;;;;;12.82;9.15;;;16.20;98.50;;;;;;5015485;28;20128;-70
2021/12/28 11:16:14;;;;;;;15.00;9.18;;;16.20;98.50;;;;;;5032712;28;20033;-66
2021/12/28 11:18:45;;;;;;;12.75;9.20;;;16.30;98.50;;;;;;5014859;28;20025;-73
2021/12/28 11:21:17;;;;;;;13.93;9.10;;;16.20;98.40;;;;;;5032815;28;20040;-69
2021/12/28 11:23:45;;;;;;;13.13;9.13;;;16.20;98.80;;;;;;5033023;28;20545;-73
2021/12/28 11:26:16;;;;;;;14.88;9.50;;;16.10;98.50;;;;;;5032755;28;20021;-68
2021/12/28 11:28:54;;;;;;;14.95;10.85;;;16.10;98.60;;;;;;5032792;28;20018;-70
2021/12/28 11:31:26;;;;;;;15.90;9.57;;;16.10;98.40;;;;;;5032798;28;20083;-66
2021/12/28 11:33:58;;;;;;;13.82;9.52;;;16.10;98.70;;;;;;5032439;28;20493;-67
2021/12/28 11:36:27;;;;;;;15.00;10.07;;;16.10;98.70;;;;;;5014560;28;20041;-65
2021/12/28 11:38:55;;;;;;;13.63;10.02;;;16.10;98.70;;;;;;5014800;28;20737;-67
2021/12/28 11:41:22;;;;;;;15.07;10.02;;;16.10;98.80;;;;;;5032749;28;20030;-74
2021/12/28 11:43:49;;;;;;;17.00;9.52;;;16.10;98.80;;;;;;5033904;28;20180;-69
2021/12/28 11:46:15;;;;;;;14.35;10.35;;;16.10;98.70;;;;;;5031583;28;20564;-73
2021/12/28 11:48:42;;;;;;;16.25;8.10;;;16.10;98.70;;;;;;5025621;23;20133;-71
2021/12/28 11:51:09;;;;;;;13.13;7.43;;;16.10;98.70;;;;;;5012574;28;20501;-66
2021/12/28 11:53:39;;;;;;;9.75;7.00;;;16.00;98.70;;;;;;5012534;28;20026;-73
2021/12/28 11:56:08;;;;;;;10.25;7.53;;;16.00;98.80;;;;;;5012594;28;20066;-67
2021/12/28 11:58:59;;;;;;;11.98;6.85;;;15.90;98.90;;;;;;5012402;28;20036;-68
2021/12/28 12:01:52;;;;;;;15.82;8.57;;;15.90;99.00;;;;;;5012283;28;20028;-71
2021/12/28 12:04:30;;;;;;;12.63;8.07;;;16.00;99.10;;;;;;5012660;28;20089;-69
2021/12/28 12:06:59;;;;;;;12.85;6.60;;;16.00;98.90;;;;;;5012279;28;20026;-66
2021/12/28 12:09:26;;;;;;;12.88;7.55;;;16.10;98.80;;;;;;5012412;28;20118;-67
2021/12/28 12:12:15;;;;;;;11.43;6.65;;;16.20;98.80;;;;;;5012528;28;20025;-68
2021/12/28 12:15:09;;;;;;;13.48;7.30;;;16.20;98.60;;;;;;5012572;28;20026;-66
2021/12/28 12:17:37;;;;;;;12.48;6.82;;;16.20;98.40;;;;;;5011353;28;20061;-68
2021/12/28 12:20:09;;;;;;;10.85;6.18;;;16.20;98.20;;;;;;5012311;28;20022;-68
2021/12/28 12:22:38;;;;;;;8.02;5.32;;;16.30;98.20;;;;;;5010529;28;20068;-70
2021/12/28 12:25:07;;;;;;;9.98;4.90;;;16.30;97.80;;;;;;5012323;28;20080;-69
2021/12/28 12:28:00;;;;;;;10.57;4.90;;;16.30;97.50;;;;;;5014410;28;20053;-68
2021/12/28 12:30:28;;;;;;;7.75;4.22;;;16.30;97.10;;;;;;5015983;28;20037;-67
2021/12/28 12:33:10;;;;;;;6.95;4.35;;;16.30;96.90;;;;;;5016044;28;20026;-68
2021/12/28 12:35:42;;;;;;;8.45;4.25;;;16.30;96.80;;;;;;5015822;28;20094;-66
2021/12/28 12:38:10;;;;;;;13.18;6.82;;;16.30;96.80;;;;;;5015534;28;20081;-66
2021/12/28 12:41:15;;;;;;;7.82;4.28;;;16.30;96.70;;;;;;5015661;28;20029;-68
2021/12/28 12:43:42;;;;;;;;;;;16.30;96.50;;;;;;5016095;28;20036;-67